sensor_id;sensor_type;location;lat;lon;timestamp;P1;durP1;ratioP1;P2;durP2;ratioP2
23302;SDS011;11820;48.738;9.092;2024-01-15T00:00:59;20.80;;;11.37;;
23302;SDS011;11820;48.738;9.092;2024-01-15T00:07:29;17.43;;;9.93;;
23302;SDS011;11820;48.738;9.092;2024-01-15T00:10:30;17.93;;;11.37;;
23302;SDS011;11820;48.738;9.092;2024-01-15T00:16:32;17.80;;;10.00;;
23302;SDS011;11820;48.738;9.092;2024-01-15T00:23:05;18.67;;;9.43;;
23302;SDS011;11820;48.738;9.092;2024-01-15T00:29:27;21.33;;;9.53;;
23302;SDS011;11820;48.738;9.092;2024-01-15T00:32:25;19.17;;;10.47;;
23302;SDS011;11820;48.738;9.092;2024-01-15T00:35:00;15.83;;;9.07;;
23302;SDS011;11820;48.738;9.092;2024-01-15T00:37:50;19.57;;;9.67;;
23302;SDS011;11820;48.738;9.092;2024-01-15T00:40:55;15.90;;;8.97;;
23302;SDS011;11820;48.738;9.092;2024-01-15T00:43:43;18.63;;;9.40;;
23302;SDS011;11820;48.738;9.092;2024-01-15T00:46:22;18.47;;;9.30;;
23302;SDS011;11820;48.738;9.092;2024-01-15T00:48:54;17.40;;;9.80;;
23302;SDS011;11820;48.738;9.092;2024-01-15T00:54:30;19.07;;;9.30;;
23302;SDS011;11820;48.738;9.092;2024-01-15T00:57:15;18.33;;;10.43;;
23302;SDS011;11820;48.738;9.092;2024-01-15T01:00:00;21.67;;;9.53;;
23302;SDS011;11820;48.738;9.092;2024-01-15T01:02:40;20.87;;;10.57;;
23302;SDS011;11820;48.738;9.092;2024-01-15T01:05:21;17.93;;;9.03;;
23302;SDS011;11820;48.738;9.092;2024-01-15T01:08:06;16.57;;;9.50;;
23302;SDS011;11820;48.738;9.092;2024-01-15T01:10:44;18.87;;;10.13;;
23302;SDS011;11820;48.738;9.092;2024-01-15T01:13:34;19.23;;;9.77;;
23302;SDS011;11820;48.738;9.092;2024-01-15T01:16:14;16.67;;;9.20;;
23302;SDS011;11820;48.738;9.092;2024-01-15T01:18:46;15.63;;;8.97;;
23302;SDS011;11820;48.738;9.092;2024-01-15T01:21:39;17.27;;;9.70;;
23302;SDS011;11820;48.738;9.092;2024-01-15T01:24:42;17.90;;;9.43;;
23302;SDS011;11820;48.738;9.092;2024-01-15T01:27:41;16.87;;;9.57;;
23302;SDS011;11820;48.738;9.092;2024-01-15T01:30:10;17.47;;;9.70;;
23302;SDS011;11820;48.738;9.092;2024-01-15T01:33:07;17.87;;;9.07;;
23302;SDS011;11820;48.738;9.092;2024-01-15T01:39:14;19.10;;;9.50;;
23302;SDS011;11820;48.738;9.092;2024-01-15T01:41:54;20.57;;;10.47;;
23302;SDS011;11820;48.738;9.092;2024-01-15T01:45:01;14.80;;;8.20;;
23302;SDS011;11820;48.738;9.092;2024-01-15T01:47:50;17.77;;;8.40;;
23302;SDS011;11820;48.738;9.092;2024-01-15T01:50:25;15.57;;;8.80;;
23302;SDS011;11820;48.738;9.092;2024-01-15T01:52:58;18.33;;;9.33;;
23302;SDS011;11820;48.738;9.092;2024-01-15T01:55:32;18.97;;;9.40;;
23302;SDS011;11820;48.738;9.092;2024-01-15T01:58:07;18.63;;;9.83;;
23302;SDS011;11820;48.738;9.092;2024-01-15T02:00:48;17.97;;;9.70;;
23302;SDS011;11820;48.738;9.092;2024-01-15T02:03:17;17.80;;;9.30;;
23302;SDS011;11820;48.738;9.092;2024-01-15T02:05:53;15.17;;;9.60;;
23302;SDS011;11820;48.738;9.092;2024-01-15T02:09:00;17.37;;;8.97;;
23302;SDS011;11820;48.738;9.092;2024-01-15T02:11:58;17.00;;;7.80;;
23302;SDS011;11820;48.738;9.092;2024-01-15T02:17:14;20.20;;;10.20;;
23302;SDS011;11820;48.738;9.092;2024-01-15T02:19:57;17.00;;;8.33;;
23302;SDS011;11820;48.738;9.092;2024-01-15T02:26:23;16.03;;;8.63;;
23302;SDS011;11820;48.738;9.092;2024-01-15T02:29:30;16.80;;;9.67;;
23302;SDS011;11820;48.738;9.092;2024-01-15T02:32:24;18.33;;;9.50;;
23302;SDS011;11820;48.738;9.092;2024-01-15T02:35:16;16.17;;;7.77;;
23302;SDS011;11820;48.738;9.092;2024-01-15T02:47:29;15.33;;;8.83;;
23302;SDS011;11820;48.738;9.092;2024-01-15T02:50:04;18.27;;;8.77;;
23302;SDS011;11820;48.738;9.092;2024-01-15T02:53:01;15.97;;;8.33;;
23302;SDS011;11820;48.738;9.092;2024-01-15T02:55:42;15.67;;;9.47;;
23302;SDS011;11820;48.738;9.092;2024-01-15T03:01:19;16.50;;;9.43;;
23302;SDS011;11820;48.738;9.092;2024-01-15T03:07:12;17.10;;;8.87;;
23302;SDS011;11820;48.738;9.092;2024-01-15T03:09:55;15.77;;;8.77;;
23302;SDS011;11820;48.738;9.092;2024-01-15T03:12:35;15.90;;;8.93;;
23302;SDS011;11820;48.738;9.092;2024-01-15T03:15:04;13.00;;;7.83;;
23302;SDS011;11820;48.738;9.092;2024-01-15T03:17:53;16.70;;;8.73;;
23302;SDS011;11820;48.738;9.092;2024-01-15T03:20:22;15.03;;;8.67;;
23302;SDS011;11820;48.738;9.092;2024-01-15T03:26:01;17.37;;;8.53;;
23302;SDS011;11820;48.738;9.092;2024-01-15T03:28:40;15.37;;;7.87;;
23302;SDS011;11820;48.738;9.092;2024-01-15T03:31:40;14.23;;;8.93;;
23302;SDS011;11820;48.738;9.092;2024-01-15T03:34:25;13.97;;;7.80;;
23302;SDS011;11820;48.738;9.092;2024-01-15T03:40:37;16.03;;;8.83;;
23302;SDS011;11820;48.738;9.092;2024-01-15T03:43:28;17.60;;;9.10;;
23302;SDS011;11820;48.738;9.092;2024-01-15T03:46:42;19.67;;;7.93;;
23302;SDS011;11820;48.738;9.092;2024-01-15T03:49:19;13.60;;;8.13;;
23302;SDS011;11820;48.738;9.092;2024-01-15T03:52:17;16.47;;;8.60;;
23302;SDS011;11820;48.738;9.092;2024-01-15T04:05:14;15.37;;;7.40;;
23302;SDS011;11820;48.738;9.092;2024-01-15T04:07:54;13.20;;;7.93;;
23302;SDS011;11820;48.738;9.092;2024-01-15T04:10:25;14.40;;;7.83;;
23302;SDS011;11820;48.738;9.092;2024-01-15T04:13:07;14.77;;;7.60;;
23302;SDS011;11820;48.738;9.092;2024-01-15T04:15:36;14.67;;;9.33;;
23302;SDS011;11820;48.738;9.092;2024-01-15T04:18:32;15.80;;;7.67;;
23302;SDS011;11820;48.738;9.092;2024-01-15T04:24:12;14.33;;;7.60;;
23302;SDS011;11820;48.738;9.092;2024-01-15T04:26:38;13.53;;;7.70;;
23302;SDS011;11820;48.738;9.092;2024-01-15T04:29:07;15.83;;;7.93;;
23302;SDS011;11820;48.738;9.092;2024-01-15T04:34:34;13.90;;;7.87;;
23302;SDS011;11820;48.738;9.092;2024-01-15T04:36:59;16.57;;;8.63;;
23302;SDS011;11820;48.738;9.092;2024-01-15T04:39:24;15.23;;;8.63;;
23302;SDS011;11820;48.738;9.092;2024-01-15T04:41:50;16.07;;;7.73;;
23302;SDS011;11820;48.738;9.092;2024-01-15T04:44:15;13.37;;;8.10;;
23302;SDS011;11820;48.738;9.092;2024-01-15T04:46:40;15.23;;;8.70;;
23302;SDS011;11820;48.738;9.092;2024-01-15T04:49:06;15.13;;;8.93;;
23302;SDS011;11820;48.738;9.092;2024-01-15T04:51:31;15.80;;;8.53;;
23302;SDS011;11820;48.738;9.092;2024-01-15T04:53:57;17.73;;;9.07;;
23302;SDS011;11820;48.738;9.092;2024-01-15T04:56:22;16.47;;;8.60;;
23302;SDS011;11820;48.738;9.092;2024-01-15T04:58:47;14.43;;;8.87;;
23302;SDS011;11820;48.738;9.092;2024-01-15T05:01:13;16.23;;;9.13;;
23302;SDS011;11820;48.738;9.092;2024-01-15T05:03:40;16.37;;;9.70;;
23302;SDS011;11820;48.738;9.092;2024-01-15T05:06:06;16.33;;;8.97;;
23302;SDS011;11820;48.738;9.092;2024-01-15T05:08:32;16.93;;;9.57;;
23302;SDS011;11820;48.738;9.092;2024-01-15T05:10:57;17.73;;;9.03;;
23302;SDS011;11820;48.738;9.092;2024-01-15T05:13:22;16.40;;;8.90;;
23302;SDS011;11820;48.738;9.092;2024-01-15T05:15:47;25.07;;;10.00;;
23302;SDS011;11820;48.738;9.092;2024-01-15T05:18:13;19.13;;;9.20;;
23302;SDS011;11820;48.738;9.092;2024-01-15T05:20:38;16.77;;;9.00;;
23302;SDS011;11820;48.738;9.092;2024-01-15T05:23:03;13.63;;;8.37;;
23302;SDS011;11820;48.738;9.092;2024-01-15T05:25:29;16.73;;;8.77;;
23302;SDS011;11820;48.738;9.092;2024-01-15T05:27:54;17.13;;;9.03;;
23302;SDS011;11820;48.738;9.092;2024-01-15T05:30:19;14.27;;;8.50;;
23302;SDS011;11820;48.738;9.092;2024-01-15T05:32:44;14.50;;;8.60;;
23302;SDS011;11820;48.738;9.092;2024-01-15T05:35:10;14.93;;;9.43;;
23302;SDS011;11820;48.738;9.092;2024-01-15T05:37:35;14.13;;;9.60;;
23302;SDS011;11820;48.738;9.092;2024-01-15T05:40:01;19.00;;;10.20;;
23302;SDS011;11820;48.738;9.092;2024-01-15T05:42:26;16.53;;;9.33;;
23302;SDS011;11820;48.738;9.092;2024-01-15T05:44:51;19.37;;;9.67;;
23302;SDS011;11820;48.738;9.092;2024-01-15T05:47:17;16.63;;;8.97;;
23302;SDS011;11820;48.738;9.092;2024-01-15T05:49:43;13.20;;;8.40;;
23302;SDS011;11820;48.738;9.092;2024-01-15T05:52:08;18.77;;;8.87;;
23302;SDS011;11820;48.738;9.092;2024-01-15T05:54:34;15.57;;;8.90;;
23302;SDS011;11820;48.738;9.092;2024-01-15T05:56:59;16.97;;;8.83;;
23302;SDS011;11820;48.738;9.092;2024-01-15T05:59:24;15.73;;;9.43;;
23302;SDS011;11820;48.738;9.092;2024-01-15T06:01:50;15.33;;;9.37;;
23302;SDS011;11820;48.738;9.092;2024-01-15T06:04:15;14.77;;;9.00;;
23302;SDS011;11820;48.738;9.092;2024-01-15T06:06:41;15.37;;;9.03;;
23302;SDS011;11820;48.738;9.092;2024-01-15T06:09:06;13.13;;;8.17;;
23302;SDS011;11820;48.738;9.092;2024-01-15T06:11:31;15.20;;;8.30;;
23302;SDS011;11820;48.738;9.092;2024-01-15T06:13:57;15.30;;;7.93;;
23302;SDS011;11820;48.738;9.092;2024-01-15T06:16:23;15.23;;;9.40;;
23302;SDS011;11820;48.738;9.092;2024-01-15T06:18:48;15.93;;;8.27;;
23302;SDS011;11820;48.738;9.092;2024-01-15T06:21:14;14.90;;;8.90;;
23302;SDS011;11820;48.738;9.092;2024-01-15T06:23:40;15.10;;;7.60;;
23302;SDS011;11820;48.738;9.092;2024-01-15T06:26:05;15.67;;;8.90;;
23302;SDS011;11820;48.738;9.092;2024-01-15T06:28:31;13.50;;;8.53;;
23302;SDS011;11820;48.738;9.092;2024-01-15T06:30:56;14.43;;;7.80;;
23302;SDS011;11820;48.738;9.092;2024-01-15T06:33:22;13.87;;;7.97;;
23302;SDS011;11820;48.738;9.092;2024-01-15T06:35:48;12.50;;;7.80;;
23302;SDS011;11820;48.738;9.092;2024-01-15T06:38:14;15.03;;;8.77;;
23302;SDS011;11820;48.738;9.092;2024-01-15T06:40:39;11.87;;;7.07;;
23302;SDS011;11820;48.738;9.092;2024-01-15T06:43:10;12.07;;;7.50;;
23302;SDS011;11820;48.738;9.092;2024-01-15T06:45:38;16.33;;;8.57;;
23302;SDS011;11820;48.738;9.092;2024-01-15T06:48:04;12.07;;;7.70;;
23302;SDS011;11820;48.738;9.092;2024-01-15T06:50:29;16.50;;;8.20;;
23302;SDS011;11820;48.738;9.092;2024-01-15T06:52:55;10.43;;;7.10;;
23302;SDS011;11820;48.738;9.092;2024-01-15T06:55:20;14.40;;;7.70;;
23302;SDS011;11820;48.738;9.092;2024-01-15T06:57:45;15.73;;;7.90;;
23302;SDS011;11820;48.738;9.092;2024-01-15T07:00:11;11.50;;;6.97;;
23302;SDS011;11820;48.738;9.092;2024-01-15T07:02:37;15.10;;;7.57;;
23302;SDS011;11820;48.738;9.092;2024-01-15T07:05:02;12.90;;;7.47;;
23302;SDS011;11820;48.738;9.092;2024-01-15T07:07:30;13.23;;;7.43;;
23302;SDS011;11820;48.738;9.092;2024-01-15T07:09:55;12.13;;;6.73;;
23302;SDS011;11820;48.738;9.092;2024-01-15T07:12:20;14.33;;;7.63;;
23302;SDS011;11820;48.738;9.092;2024-01-15T07:14:46;14.33;;;7.57;;
23302;SDS011;11820;48.738;9.092;2024-01-15T07:17:11;12.90;;;8.10;;
23302;SDS011;11820;48.738;9.092;2024-01-15T07:19:36;13.37;;;8.23;;
23302;SDS011;11820;48.738;9.092;2024-01-15T07:22:02;12.50;;;7.10;;
23302;SDS011;11820;48.738;9.092;2024-01-15T07:24:27;12.00;;;7.30;;
23302;SDS011;11820;48.738;9.092;2024-01-15T07:26:52;13.37;;;8.10;;
23302;SDS011;11820;48.738;9.092;2024-01-15T07:29:18;13.77;;;7.90;;
23302;SDS011;11820;48.738;9.092;2024-01-15T07:31:50;14.03;;;8.33;;
23302;SDS011;11820;48.738;9.092;2024-01-15T07:34:16;14.50;;;7.90;;
23302;SDS011;11820;48.738;9.092;2024-01-15T07:36:43;14.93;;;8.33;;
23302;SDS011;11820;48.738;9.092;2024-01-15T07:39:09;13.60;;;7.80;;
23302;SDS011;11820;48.738;9.092;2024-01-15T07:41:34;13.57;;;7.60;;
23302;SDS011;11820;48.738;9.092;2024-01-15T07:44:00;12.63;;;7.50;;
23302;SDS011;11820;48.738;9.092;2024-01-15T07:46:25;13.83;;;8.20;;
23302;SDS011;11820;48.738;9.092;2024-01-15T07:48:50;15.33;;;7.77;;
23302;SDS011;11820;48.738;9.092;2024-01-15T07:51:21;16.50;;;7.40;;
23302;SDS011;11820;48.738;9.092;2024-01-15T07:53:46;10.43;;;6.90;;
23302;SDS011;11820;48.738;9.092;2024-01-15T07:56:12;12.60;;;7.63;;
23302;SDS011;11820;48.738;9.092;2024-01-15T07:58:37;10.20;;;6.80;;
23302;SDS011;11820;48.738;9.092;2024-01-15T08:01:03;13.97;;;8.03;;
23302;SDS011;11820;48.738;9.092;2024-01-15T08:03:28;11.97;;;6.90;;
23302;SDS011;11820;48.738;9.092;2024-01-15T08:05:53;14.07;;;7.70;;
23302;SDS011;11820;48.738;9.092;2024-01-15T08:08:20;11.80;;;7.40;;
23302;SDS011;11820;48.738;9.092;2024-01-15T08:10:46;12.87;;;6.83;;
23302;SDS011;11820;48.738;9.092;2024-01-15T08:13:12;13.67;;;7.37;;
23302;SDS011;11820;48.738;9.092;2024-01-15T08:15:37;11.73;;;7.93;;
23302;SDS011;11820;48.738;9.092;2024-01-15T08:18:02;12.43;;;7.63;;
23302;SDS011;11820;48.738;9.092;2024-01-15T08:20:28;12.47;;;7.53;;
23302;SDS011;11820;48.738;9.092;2024-01-15T08:22:53;10.77;;;7.30;;
23302;SDS011;11820;48.738;9.092;2024-01-15T08:25:19;12.33;;;7.37;;
23302;SDS011;11820;48.738;9.092;2024-01-15T08:27:44;14.83;;;7.50;;
23302;SDS011;11820;48.738;9.092;2024-01-15T08:30:09;13.30;;;7.83;;
23302;SDS011;11820;48.738;9.092;2024-01-15T08:32:35;10.47;;;6.33;;
23302;SDS011;11820;48.738;9.092;2024-01-15T08:35:05;9.70;;;6.03;;
23302;SDS011;11820;48.738;9.092;2024-01-15T08:37:31;9.00;;;5.37;;
23302;SDS011;11820;48.738;9.092;2024-01-15T08:39:56;10.27;;;6.03;;
23302;SDS011;11820;48.738;9.092;2024-01-15T08:42:21;16.63;;;6.80;;
23302;SDS011;11820;48.738;9.092;2024-01-15T08:44:47;11.17;;;5.60;;
23302;SDS011;11820;48.738;9.092;2024-01-15T08:47:12;12.67;;;6.43;;
23302;SDS011;11820;48.738;9.092;2024-01-15T08:49:37;8.50;;;4.83;;
23302;SDS011;11820;48.738;9.092;2024-01-15T08:52:03;9.87;;;5.33;;
23302;SDS011;11820;48.738;9.092;2024-01-15T08:54:28;9.43;;;5.33;;
23302;SDS011;11820;48.738;9.092;2024-01-15T08:56:53;9.03;;;4.57;;
23302;SDS011;11820;48.738;9.092;2024-01-15T08:59:19;9.33;;;5.20;;
23302;SDS011;11820;48.738;9.092;2024-01-15T09:01:49;9.40;;;4.20;;
23302;SDS011;11820;48.738;9.092;2024-01-15T09:04:15;8.73;;;5.07;;
